Terminal Aerodrome Forecast
Issued by NWS

Home | Current Version | Previous Version | Text Only | Print | Product List | Glossary On
Versions: 1 2 3 4 5 6 7 8 9 10 11 12 13 14 15 16 17 18 19 20 21 22 23 24 25 26 27 28 29 30 31 32
654
FTUS41 KOKX 281747
TAFTEB
TAF
KTEB 281747Z 2818/2918 17007KT P6SM SCT060 BKN250
     FM290100 18005KT P6SM VCSH SCT030 BKN090
     FM290600 VRB03KT 4SM SHRA SCT005 BKN010
      TEMPO 2906/2909 1SM TSRA OVC005CB
     FM290900 06006KT 2SM SHRA BR OVC010 PROB30 2909/2913 1SM +TSRA
      OVC005CB
     FM291500 34012G18KT 5SM -RA BR OVC012=

USA.gov is the U.S. government's official web portal to all federal, state and local government web resources and services.